createdAt,value
2023-04-07T04:01:44.702Z,2.17
2023-04-07T04:04:11.615Z,1.98
2023-04-07T04:06:38.381Z,1.80
2023-04-07T04:09:05.503Z,1.25
2023-04-07T04:11:32.246Z,3.13
2023-04-07T04:13:58.916Z,2.80
2023-04-07T04:16:25.862Z,1.40
2023-04-07T04:18:52.629Z,1.77
2023-04-07T04:21:19.388Z,1.80
2023-04-07T04:23:46.315Z,1.88
2023-04-07T04:26:13.152Z,1.50
2023-04-07T04:28:39.859Z,1.70
2023-04-07T04:31:06.688Z,1.60
2023-04-07T04:33:33.764Z,1.15
2023-04-07T04:36:00.848Z,1.50
2023-04-07T04:38:27.662Z,1.10
2023-04-07T04:40:54.482Z,1.98
2023-04-07T04:43:21.183Z,2.70
2023-04-07T04:45:48.113Z,1.30
2023-04-07T04:48:14.911Z,1.70
2023-04-07T04:50:43.121Z,1.77
2023-04-07T04:53:10.330Z,1.30
2023-04-07T04:55:37.328Z,1.23
2023-04-07T04:58:03.997Z,1.27
2023-04-07T05:00:30.955Z,1.17
2023-04-07T05:02:58.058Z,1.45
2023-04-07T05:05:24.885Z,1.50
2023-04-07T05:07:51.591Z,1.50
2023-04-07T05:10:18.321Z,1.30
2023-04-07T05:12:45.469Z,1.05
2023-04-07T05:15:12.294Z,1.60
2023-04-07T05:17:39.053Z,0.88
2023-04-07T05:20:06.544Z,1.75
2023-04-07T05:22:33.283Z,1.98
2023-04-07T05:25:00.047Z,1.85
2023-04-07T05:27:27.329Z,1.30
2023-04-07T05:29:54.139Z,1.17
2023-04-07T05:32:21.095Z,1.75
2023-04-07T05:34:47.792Z,1.30
2023-04-07T05:37:14.499Z,1.90
2023-04-07T05:39:41.204Z,1.60
2023-04-07T05:42:07.980Z,1.65
2023-04-07T05:44:34.736Z,1.30
2023-04-07T05:47:01.540Z,1.67
2023-04-07T05:49:28.206Z,1.75
2023-04-07T05:51:54.887Z,1.73
2023-04-07T05:54:21.831Z,1.35
2023-04-07T05:56:48.519Z,1.98
2023-04-07T05:59:15.484Z,2.05
2023-04-07T06:01:42.987Z,1.25
2023-04-07T06:04:09.763Z,1.95
2023-04-07T06:06:36.465Z,1.42
2023-04-07T06:09:03.288Z,2.17
2023-04-07T06:11:30.272Z,2.00
2023-04-07T06:13:57.003Z,1.60
2023-04-07T06:16:23.778Z,1.63
2023-04-07T06:18:50.598Z,1.85
2023-04-07T06:21:17.329Z,2.00
2023-04-07T06:23:44.132Z,2.58
2023-04-07T06:26:12.279Z,1.52
2023-04-07T06:28:39.635Z,2.70
2023-04-07T06:31:08.627Z,3.17
2023-04-07T06:33:35.480Z,2.03
2023-04-07T06:36:02.391Z,3.70
2023-04-07T06:38:29.221Z,1.85
2023-04-07T06:40:55.972Z,1.77
2023-04-07T06:43:22.730Z,3.13
2023-04-07T06:45:49.538Z,2.03
2023-04-07T06:48:16.563Z,1.77
2023-04-07T06:50:47.417Z,1.40
2023-04-07T06:53:14.179Z,2.67
2023-04-07T06:55:41.599Z,1.75
2023-04-07T06:58:08.731Z,2.58
2023-04-07T07:00:36.157Z,2.10
2023-04-07T07:03:03.259Z,2.00
2023-04-07T07:05:30.241Z,2.00
2023-04-07T07:07:57.125Z,2.28
2023-04-07T07:10:23.940Z,1.92
2023-04-07T07:12:51.585Z,2.70
2023-04-07T07:15:18.588Z,1.77
2023-04-07T07:17:45.424Z,2.47
2023-04-07T07:20:12.309Z,2.30
2023-04-07T07:22:39.104Z,2.40
2023-04-07T07:25:06.240Z,1.40
2023-04-07T07:27:32.897Z,1.85
2023-04-07T07:30:00.486Z,2.70
2023-04-07T07:32:27.228Z,1.60
2023-04-07T07:34:53.977Z,1.90
2023-04-07T07:37:20.762Z,2.38
2023-04-07T07:39:47.512Z,1.58
2023-04-07T07:42:14.901Z,2.90
2023-04-07T07:44:41.557Z,2.15
2023-04-07T07:47:08.232Z,2.20
2023-04-07T07:49:35.266Z,3.00
2023-04-07T07:52:02.572Z,3.80
2023-04-07T07:54:29.380Z,2.10
2023-04-07T07:56:56.286Z,2.30
2023-04-07T07:59:23.113Z,3.15
2023-04-07T08:01:49.893Z,1.83
2023-04-07T08:04:16.770Z,1.30
2023-04-07T08:06:46.124Z,2.42
2023-04-07T08:09:12.796Z,1.85
2023-04-07T08:11:39.543Z,2.60
2023-04-07T08:14:08.099Z,2.13
2023-04-07T08:16:36.293Z,2.88
2023-04-07T08:19:03.018Z,2.05
2023-04-07T08:21:29.755Z,2.42
2023-04-07T08:23:56.467Z,3.10
2023-04-07T08:26:23.344Z,2.33
2023-04-07T08:28:53.453Z,3.58
2023-04-07T08:31:20.304Z,1.90
2023-04-07T08:33:47.470Z,1.58
2023-04-07T08:36:14.408Z,2.63
2023-04-07T08:38:41.376Z,2.33
2023-04-07T08:41:13.303Z,1.10
2023-04-07T08:43:41.268Z,1.60
2023-04-07T08:46:10.124Z,1.80
2023-04-07T08:48:38.995Z,2.58
2023-04-07T08:51:08.460Z,2.25
2023-04-07T08:53:53.097Z,2.38
2023-04-07T08:56:21.325Z,1.77
2023-04-07T08:58:49.005Z,2.80
2023-04-07T09:01:16.560Z,1.52
2023-04-07T09:03:45.400Z,1.98
2023-04-07T09:06:12.308Z,1.90
2023-04-07T09:08:39.114Z,2.05
2023-04-07T09:11:05.846Z,1.77
2023-04-07T09:13:33.473Z,1.58
2023-04-07T09:16:03.142Z,1.33
2023-04-07T09:18:30.141Z,2.00
2023-04-07T09:21:02.472Z,1.35
2023-04-07T09:23:37.729Z,1.90
2023-04-07T09:26:25.683Z,2.75
2023-04-07T09:28:54.435Z,1.60
2023-04-07T09:31:26.932Z,1.42
2023-04-07T09:36:20.621Z,1.58
2023-04-07T09:38:47.391Z,1.13
2023-04-07T09:41:17.499Z,1.92
2023-04-07T09:43:46.637Z,1.85
2023-04-07T09:46:18.900Z,1.63
2023-04-07T09:48:46.881Z,1.25
2023-04-07T09:51:16.075Z,2.30
2023-04-07T09:53:44.944Z,2.13
2023-04-07T09:56:11.998Z,2.00
2023-04-07T09:58:40.897Z,1.63
2023-04-07T10:01:09.491Z,2.17
2023-04-07T10:03:37.738Z,2.85
2023-04-07T10:06:08.629Z,1.20
2023-04-07T10:08:37.825Z,1.90
2023-04-07T10:11:05.662Z,3.33
2023-04-07T10:13:37.076Z,1.83
2023-04-07T10:16:05.933Z,1.50
2023-04-07T10:18:34.343Z,2.28
2023-04-07T10:21:07.955Z,1.00
2023-04-07T10:23:49.321Z,1.00
2023-04-07T10:26:19.758Z,0.75
2023-04-07T10:28:50.572Z,0.98
2023-04-07T10:31:18.463Z,0.75
2023-04-07T10:33:50.334Z,1.35
2023-04-07T10:36:22.036Z,0.70
2023-04-07T10:39:08.741Z,0.93
2023-04-07T10:41:39.943Z,0.68
2023-04-07T10:44:08.665Z,1.05
2023-04-07T10:46:52.297Z,0.85
2023-04-07T10:49:19.297Z,0.70
2023-04-07T10:52:12.009Z,1.30
2023-04-07T10:54:39.644Z,0.80
2023-04-07T10:57:10.992Z,0.85
2023-04-07T10:59:40.244Z,0.40
2023-04-07T11:02:13.756Z,0.40
2023-04-07T11:04:47.400Z,0.60
2023-04-07T11:07:16.333Z,0.50
2023-04-07T11:09:44.141Z,0.70
2023-04-07T11:12:23.794Z,0.55
2023-04-07T11:14:50.778Z,0.43
2023-04-07T11:17:17.595Z,0.50
2023-04-07T11:19:52.565Z,0.40
2023-04-07T11:24:49.536Z,0.55
2023-04-07T11:27:16.595Z,0.50
2023-04-07T11:29:44.110Z,1.15
2023-04-07T11:32:13.037Z,0.30
2023-04-07T11:34:40.410Z,0.40
2023-04-07T11:37:28.912Z,0.40
2023-04-07T11:39:57.494Z,0.40
2023-04-07T11:42:39.442Z,0.60
2023-04-07T11:45:16.414Z,0.47
2023-04-07T11:47:43.311Z,0.30
2023-04-07T11:50:11.663Z,0.45
2023-04-07T11:52:49.313Z,0.47
2023-04-07T11:55:26.630Z,0.45
2023-04-07T11:57:53.452Z,0.60
2023-04-07T12:00:21.193Z,0.60
2023-04-07T12:02:48.141Z,0.82
2023-04-07T12:05:15.388Z,1.15
2023-04-07T12:07:53.984Z,0.47
2023-04-07T12:10:21.083Z,0.82
2023-04-07T12:12:48.174Z,0.60
2023-04-07T12:15:15.088Z,0.80
2023-04-07T12:17:47.452Z,0.85
2023-04-07T12:22:42.093Z,0.50
2023-04-07T12:25:09.056Z,0.60
2023-04-07T12:27:42.671Z,0.50
2023-04-07T12:30:10.427Z,0.80
2023-04-07T12:32:37.858Z,0.60
2023-04-07T12:35:06.338Z,0.38
2023-04-07T12:37:33.261Z,1.42
2023-04-07T12:40:00.367Z,0.68
2023-04-07T12:42:28.411Z,0.50
2023-04-07T12:44:55.478Z,0.47
2023-04-07T12:47:22.552Z,0.70
2023-04-07T12:49:50.077Z,0.68
2023-04-07T12:52:17.103Z,0.60
2023-04-07T12:54:45.258Z,0.52
2023-04-07T12:57:12.391Z,0.35
2023-04-07T12:59:39.098Z,0.73
2023-04-07T13:02:06.092Z,0.45
2023-04-07T13:04:33.165Z,0.80
2023-04-07T13:07:00.982Z,0.50
2023-04-07T13:09:27.719Z,0.88
2023-04-07T13:11:54.437Z,0.40
2023-04-07T13:14:21.277Z,0.60
2023-04-07T13:16:48.005Z,0.93
2023-04-07T13:19:14.908Z,0.70
2023-04-07T13:21:46.737Z,0.30
2023-04-07T13:24:14.658Z,0.35
2023-04-07T13:26:41.670Z,0.85
2023-04-07T13:29:08.404Z,0.50
2023-04-07T13:31:35.313Z,0.30
2023-04-07T13:34:02.041Z,0.50
2023-04-07T13:36:28.760Z,0.90
2023-04-07T13:38:56.923Z,0.40
2023-04-07T13:41:23.817Z,0.63
2023-04-07T13:43:51.017Z,0.40
2023-04-07T13:48:49.404Z,0.50
2023-04-07T13:51:16.420Z,0.95
2023-04-07T13:53:43.126Z,0.65
2023-04-07T13:56:10.413Z,0.43
2023-04-07T13:58:37.227Z,0.70
2023-04-07T14:01:04.419Z,0.57
2023-04-07T14:03:31.883Z,0.88
2023-04-07T14:06:01.144Z,0.63
2023-04-07T14:08:28.375Z,0.35
2023-04-07T14:10:55.076Z,0.70
2023-04-07T14:13:22.122Z,0.50
2023-04-07T14:15:49.760Z,0.70
2023-04-07T14:18:17.403Z,0.80
2023-04-07T14:20:44.214Z,0.60
2023-04-07T14:23:11.417Z,0.32
2023-04-07T14:25:38.210Z,0.60
2023-04-07T14:28:04.963Z,0.70
2023-04-07T14:30:31.851Z,0.63
2023-04-07T14:32:58.645Z,0.60
2023-04-07T14:35:25.616Z,0.50
2023-04-07T14:37:52.506Z,0.70
2023-04-07T14:40:21.333Z,0.70
2023-04-07T14:42:48.972Z,0.60
2023-04-07T14:45:17.846Z,0.65
2023-04-07T14:47:45.743Z,0.73
2023-04-07T14:50:12.704Z,0.63
2023-04-07T14:52:39.396Z,0.80
2023-04-07T14:55:06.808Z,0.80
2023-04-07T14:57:33.494Z,0.85
2023-04-07T15:00:00.238Z,1.02
2023-04-07T15:02:29.314Z,0.60
2023-04-07T15:04:56.222Z,0.98
2023-04-07T15:07:23.069Z,0.52
2023-04-07T15:09:49.758Z,0.70
2023-04-07T15:12:16.601Z,0.40
2023-04-07T15:14:45.134Z,0.57
2023-04-07T15:17:12.387Z,0.63
2023-04-07T15:19:39.209Z,0.60
2023-04-07T15:22:05.922Z,0.93
2023-04-07T15:24:32.581Z,0.80
2023-04-07T15:26:59.305Z,0.82
2023-04-07T15:29:25.993Z,0.60
2023-04-07T15:31:52.754Z,1.02
2023-04-07T15:34:19.642Z,0.63
2023-04-07T15:36:46.362Z,0.57
2023-04-07T15:39:13.127Z,0.70
2023-04-07T15:41:39.799Z,0.98
2023-04-07T15:44:06.635Z,0.80
2023-04-07T15:46:33.441Z,1.15
2023-04-07T15:49:00.691Z,0.77
2023-04-07T15:51:28.848Z,0.60
2023-04-07T15:53:55.679Z,1.23
2023-04-07T15:56:24.731Z,0.75
2023-04-07T15:58:51.723Z,0.70
2023-04-07T16:01:18.520Z,1.50
2023-04-07T16:03:45.456Z,0.60
2023-04-07T16:06:12.255Z,0.75
2023-04-07T16:08:38.959Z,0.70
2023-04-07T16:11:05.725Z,0.70
2023-04-07T16:13:32.420Z,0.60
2023-04-07T16:15:59.109Z,0.63
2023-04-07T16:18:25.916Z,0.90
2023-04-07T16:20:52.608Z,0.60
2023-04-07T16:23:19.311Z,1.08
2023-04-07T16:25:46.053Z,0.70
2023-04-07T16:28:12.734Z,0.90
2023-04-07T16:30:40.108Z,0.52
2023-04-07T16:33:07.025Z,0.45
2023-04-07T16:35:33.819Z,0.70
2023-04-07T16:38:05.901Z,0.38
2023-04-07T16:40:33.289Z,0.47
2023-04-07T16:42:59.984Z,0.60
2023-04-07T16:45:26.804Z,0.73
2023-04-07T16:47:53.573Z,0.80
2023-04-07T16:50:20.450Z,0.60
2023-04-07T16:52:47.900Z,0.70
2023-04-07T16:55:14.740Z,0.80
2023-04-07T16:57:41.492Z,0.73
2023-04-07T17:00:08.634Z,0.70
2023-04-07T17:02:35.528Z,0.93
2023-04-07T17:05:02.409Z,0.98
2023-04-07T17:07:29.219Z,0.65
2023-04-07T17:09:56.051Z,0.82
2023-04-07T17:12:22.899Z,0.85
2023-04-07T17:14:49.591Z,0.68
2023-04-07T17:17:16.460Z,1.05
2023-04-07T17:19:43.184Z,0.60
2023-04-07T17:22:09.897Z,0.80
2023-04-07T17:24:36.546Z,0.90
2023-04-07T17:27:03.306Z,0.57
2023-04-07T17:29:31.345Z,0.75
2023-04-07T17:31:58.125Z,0.75
2023-04-07T17:34:25.189Z,0.57
2023-04-07T17:36:51.952Z,0.88
2023-04-07T17:39:18.790Z,0.95
2023-04-07T17:41:46.825Z,0.80
2023-04-07T17:44:13.742Z,1.15
2023-04-07T17:46:41.092Z,0.70
2023-04-07T17:49:07.897Z,0.90
2023-04-07T17:51:34.606Z,0.85
2023-04-07T17:54:01.286Z,3.72
2023-04-07T17:56:28.761Z,1.02
2023-04-07T17:58:55.742Z,1.17
2023-04-07T18:01:22.567Z,0.70
2023-04-07T18:03:49.672Z,0.85
2023-04-07T18:06:17.445Z,0.75
2023-04-07T18:08:47.955Z,1.00
2023-04-07T18:11:15.466Z,0.60
2023-04-07T18:13:42.383Z,1.10
2023-04-07T18:16:09.637Z,0.82
2023-04-07T18:18:38.059Z,0.50
2023-04-07T18:21:06.349Z,0.80
2023-04-07T18:23:33.031Z,0.70
2023-04-07T18:26:03.641Z,0.80
2023-04-07T18:28:30.659Z,0.65
2023-04-07T18:31:06.448Z,0.85
2023-04-07T18:33:34.355Z,1.00
2023-04-07T18:36:03.892Z,0.80
2023-04-07T18:38:30.832Z,0.82
2023-04-07T18:40:57.655Z,0.68
2023-04-07T18:43:24.399Z,1.27
2023-04-07T18:45:52.804Z,1.13
2023-04-07T18:48:19.932Z,0.82
2023-04-07T18:50:54.114Z,0.88
2023-04-07T18:53:21.708Z,1.13
2023-04-07T18:55:48.580Z,1.20
2023-04-07T18:58:15.949Z,0.70
2023-04-07T19:00:44.179Z,0.80
2023-04-07T19:03:11.441Z,0.60
2023-04-07T19:05:42.212Z,0.65
2023-04-07T19:08:09.513Z,0.93
2023-04-07T19:10:36.362Z,1.60
2023-04-07T19:13:03.771Z,1.05
2023-04-07T19:15:38.350Z,1.40
2023-04-07T19:18:05.475Z,0.80
2023-04-07T19:20:33.847Z,1.23
2023-04-07T19:23:01.509Z,0.77
2023-04-07T19:25:28.375Z,1.15
2023-04-07T19:27:55.164Z,0.60
2023-04-07T19:30:22.196Z,0.75
2023-04-07T19:32:49.111Z,0.85
2023-04-07T19:35:16.617Z,0.80
2023-04-07T19:37:43.337Z,0.95
2023-04-07T19:40:10.777Z,1.15
2023-04-07T19:42:39.231Z,0.85
2023-04-07T19:45:08.125Z,1.00
2023-04-07T19:47:36.810Z,1.17
2023-04-07T19:50:04.477Z,0.90
2023-04-07T19:52:32.537Z,1.35
2023-04-07T19:55:00.944Z,1.42
2023-04-07T19:57:28.464Z,1.65
2023-04-07T19:59:55.383Z,1.00
2023-04-07T20:02:22.153Z,1.10
2023-04-07T20:04:49.069Z,1.10
2023-04-07T20:07:16.393Z,1.15
2023-04-07T20:09:45.886Z,2.05
2023-04-07T20:12:14.580Z,1.33
2023-04-07T20:14:41.683Z,0.88
2023-04-07T20:17:08.506Z,1.13
2023-04-07T20:19:35.932Z,1.70
2023-04-07T20:22:02.944Z,1.15
2023-04-07T20:24:29.684Z,1.30
2023-04-07T20:26:56.547Z,1.25
2023-04-07T20:29:23.214Z,1.30
2023-04-07T20:31:49.911Z,1.65
2023-04-07T20:34:16.772Z,2.53
2023-04-07T20:36:43.660Z,1.95
2023-04-07T20:39:10.583Z,1.77
2023-04-07T20:41:37.740Z,1.60
2023-04-07T20:44:05.518Z,2.78
2023-04-07T20:46:33.666Z,2.28
2023-04-07T20:49:00.532Z,2.22
2023-04-07T20:51:28.782Z,2.30
2023-04-07T20:53:55.451Z,3.25
2023-04-07T20:56:23.618Z,2.53
2023-04-07T20:58:50.741Z,2.90
2023-04-07T21:01:17.594Z,2.53
2023-04-07T21:03:44.444Z,2.78
2023-04-07T21:06:11.357Z,2.55
2023-04-07T21:08:38.121Z,3.75
2023-04-07T21:11:04.845Z,2.45
2023-04-07T21:13:31.724Z,2.28
2023-04-07T21:15:59.320Z,3.60
2023-04-07T21:18:27.500Z,3.17
2023-04-07T21:20:57.616Z,2.58
2023-04-07T21:23:24.508Z,2.92
2023-04-07T21:25:51.334Z,3.88
2023-04-07T21:28:18.166Z,3.65
2023-04-07T21:30:45.069Z,2.30
2023-04-07T21:33:13.633Z,2.97
2023-04-07T21:35:40.537Z,2.97
2023-04-07T21:38:07.427Z,3.40
2023-04-07T21:40:34.146Z,2.60
2023-04-07T21:43:00.825Z,2.22
2023-04-07T21:45:29.550Z,3.22
2023-04-07T21:47:56.749Z,2.35
2023-04-07T21:50:23.974Z,3.25
2023-04-07T21:52:51.603Z,3.25
2023-04-07T21:55:21.576Z,3.45
2023-04-07T21:57:50.052Z,2.83
2023-04-07T22:00:17.021Z,2.75
2023-04-07T22:02:43.924Z,3.17
2023-04-07T22:05:10.845Z,3.03
2023-04-07T22:07:37.701Z,3.22
2023-04-07T22:10:04.883Z,2.97
2023-04-07T22:12:31.566Z,3.10
2023-04-07T22:14:58.224Z,3.30
2023-04-07T22:17:25.686Z,3.72
2023-04-07T22:19:52.880Z,3.45
2023-04-07T22:22:19.732Z,2.80
2023-04-07T22:24:46.482Z,4.20
2023-04-07T22:27:13.183Z,3.05
2023-04-07T22:29:39.894Z,3.03
2023-04-07T22:32:06.576Z,2.80
2023-04-07T22:34:33.285Z,3.22
2023-04-07T22:37:00.063Z,3.88
2023-04-07T22:39:26.776Z,2.80
2023-04-07T22:41:53.896Z,4.47
2023-04-07T22:44:20.834Z,3.17
2023-04-07T22:46:47.923Z,3.30
2023-04-07T22:49:14.669Z,3.22
2023-04-07T22:51:41.421Z,2.38
2023-04-07T22:54:08.105Z,2.63
2023-04-07T22:56:34.855Z,2.67
2023-04-07T22:59:05.789Z,2.70
2023-04-07T23:01:33.209Z,3.38
2023-04-07T23:04:00.252Z,3.03
2023-04-07T23:06:31.466Z,4.07
2023-04-07T23:08:58.149Z,3.38
2023-04-07T23:11:25.029Z,3.25
2023-04-07T23:13:52.462Z,3.30
2023-04-07T23:16:19.283Z,3.88
2023-04-07T23:18:46.234Z,3.65
2023-04-07T23:21:13.564Z,3.20
2023-04-07T23:23:40.414Z,4.13
2023-04-07T23:26:07.250Z,5.47
2023-04-07T23:28:33.951Z,4.97
2023-04-07T23:31:02.043Z,5.63
2023-04-07T23:33:31.647Z,4.90
2023-04-07T23:35:58.848Z,4.38
2023-04-07T23:38:26.264Z,5.05
2023-04-07T23:40:53.499Z,4.78
2023-04-07T23:43:20.310Z,5.03
2023-04-07T23:45:47.242Z,7.07
2023-04-07T23:48:14.744Z,6.00
2023-04-07T23:50:41.764Z,7.05
2023-04-07T23:53:08.429Z,7.43
2023-04-07T23:55:35.389Z,6.45
2023-04-07T23:58:02.165Z,8.07
